createdAt,value
2022-09-20T00:00:26.709Z,1.17
2022-09-20T00:03:19.426Z,1.50
2022-09-20T00:05:50.292Z,1.30
2022-09-20T00:08:21.081Z,1.20
2022-09-20T00:10:51.761Z,1.20
2022-09-20T00:13:25.028Z,1.10
2022-09-20T00:15:56.105Z,1.13
2022-09-20T00:18:26.799Z,1.20
2022-09-20T00:20:57.595Z,1.27
2022-09-20T00:23:28.421Z,1.63
2022-09-20T00:26:00.515Z,1.50
2022-09-20T00:28:35.767Z,1.13
2022-09-20T00:31:06.756Z,2.00
2022-09-20T00:33:49.038Z,1.07
2022-09-20T00:36:19.728Z,1.23
2022-09-20T00:38:50.875Z,1.20
2022-09-20T00:41:21.408Z,1.00
2022-09-20T00:43:54.920Z,1.07
2022-09-20T00:46:31.335Z,1.33
2022-09-20T00:49:07.628Z,1.50
2022-09-20T00:51:42.148Z,1.27
2022-09-20T00:54:18.151Z,1.00
2022-09-20T00:56:51.715Z,1.20
2022-09-20T00:59:27.177Z,1.10
2022-09-20T01:02:03.042Z,1.20
2022-09-20T01:04:33.816Z,1.23
2022-09-20T01:07:08.147Z,1.07
2022-09-20T01:09:38.420Z,1.30
2022-09-20T01:12:12.390Z,1.20
2022-09-20T01:14:47.000Z,1.17
2022-09-20T01:17:19.336Z,1.00
2022-09-20T01:19:59.370Z,1.00
2022-09-20T01:22:38.742Z,1.30
2022-09-20T01:25:16.905Z,1.10
2022-09-20T01:27:51.687Z,1.03
2022-09-20T01:30:24.016Z,1.10
2022-09-20T01:33:07.398Z,1.10
2022-09-20T01:35:39.093Z,1.10
2022-09-20T01:38:27.440Z,1.20
2022-09-20T01:41:06.822Z,1.20
2022-09-20T01:43:45.410Z,1.30
2022-09-20T01:46:31.533Z,0.93
2022-09-20T01:49:15.060Z,1.90
2022-09-20T01:52:12.043Z,1.60
2022-09-20T01:55:24.304Z,1.60
2022-09-20T01:58:22.022Z,1.23
2022-09-20T02:01:14.892Z,1.20
2022-09-20T02:04:14.667Z,1.50
2022-09-20T02:06:58.231Z,1.53
2022-09-20T02:09:39.575Z,1.40
2022-09-20T02:12:33.727Z,1.70
2022-09-20T02:15:16.980Z,1.30
2022-09-20T02:18:04.603Z,1.60
2022-09-20T02:20:48.003Z,1.43
2022-09-20T02:23:36.883Z,1.60
2022-09-20T02:26:17.003Z,1.87
2022-09-20T02:28:57.358Z,1.40
2022-09-20T02:31:50.034Z,1.93
2022-09-20T02:34:52.150Z,2.07
2022-09-20T02:37:50.196Z,2.10
2022-09-20T02:40:33.319Z,2.00
2022-09-20T02:43:10.362Z,1.43
2022-09-20T02:45:48.282Z,1.90
2022-09-20T02:48:26.479Z,1.60
2022-09-20T02:51:05.739Z,1.93
2022-09-20T02:53:45.123Z,2.00
2022-09-20T02:56:22.272Z,1.80
2022-09-20T02:59:10.266Z,1.40
2022-09-20T03:01:59.054Z,1.30
2022-09-20T03:04:41.554Z,1.40
2022-09-20T03:07:24.873Z,1.43
2022-09-20T03:10:05.303Z,1.40
2022-09-20T03:12:46.107Z,1.97
2022-09-20T03:15:26.715Z,1.50
2022-09-20T03:18:09.836Z,1.43
2022-09-20T03:20:49.675Z,1.30
2022-09-20T03:23:41.105Z,1.37
2022-09-20T03:26:23.545Z,1.23
2022-09-20T03:29:04.140Z,1.23
2022-09-20T03:31:51.902Z,1.20
2022-09-20T03:34:39.297Z,1.33
2022-09-20T03:37:28.635Z,1.30
2022-09-20T03:40:20.588Z,1.40
2022-09-20T03:42:54.287Z,1.33
2022-09-20T03:45:38.082Z,1.10
2022-09-20T03:48:30.115Z,1.00
2022-09-20T03:51:15.268Z,1.37
2022-09-20T03:54:05.440Z,1.20
2022-09-20T03:57:14.781Z,1.20
2022-09-20T04:00:10.176Z,1.60
2022-09-20T04:03:13.567Z,1.47
2022-09-20T04:05:59.224Z,1.30
2022-09-20T04:08:49.196Z,1.30
2022-09-20T04:11:30.302Z,1.13
2022-09-20T04:14:14.745Z,1.30
2022-09-20T04:16:52.136Z,1.53
2022-09-20T04:19:32.871Z,1.20
2022-09-20T04:22:07.488Z,1.40
2022-09-20T04:24:43.587Z,1.60
2022-09-20T04:27:19.461Z,1.40
2022-09-20T04:29:58.314Z,1.30
2022-09-20T04:32:34.985Z,1.50
2022-09-20T04:35:20.982Z,1.50
2022-09-20T04:37:52.872Z,1.30
2022-09-20T04:40:36.987Z,1.20
2022-09-20T04:43:42.060Z,1.43
2022-09-20T04:46:42.963Z,1.40
2022-09-20T04:49:54.709Z,1.30
2022-09-20T04:52:55.250Z,1.60
2022-09-20T04:55:54.628Z,1.40
2022-09-20T04:58:47.096Z,1.10
2022-09-20T05:02:03.575Z,1.37
2022-09-20T05:08:59.065Z,1.80
2022-09-20T05:11:47.510Z,1.37
2022-09-20T05:14:39.286Z,1.60
2022-09-20T05:17:28.043Z,1.40
2022-09-20T05:20:26.528Z,1.27
2022-09-20T05:23:24.915Z,1.20
2022-09-20T05:26:17.647Z,1.27
2022-09-20T05:28:56.835Z,1.50
2022-09-20T05:31:40.405Z,1.57
2022-09-20T05:34:23.299Z,1.30
2022-09-20T05:37:01.266Z,1.50
2022-09-20T05:39:39.499Z,1.30
2022-09-20T05:42:19.914Z,1.50
2022-09-20T05:44:59.137Z,1.67
2022-09-20T05:47:39.916Z,1.57
2022-09-20T05:50:34.272Z,1.50
2022-09-20T05:53:20.147Z,1.67
2022-09-20T05:56:04.821Z,1.50
2022-09-20T05:58:48.897Z,1.47
2022-09-20T06:01:24.679Z,1.73
2022-09-20T06:04:02.387Z,1.60
2022-09-20T06:06:49.855Z,1.20
2022-09-20T06:09:47.361Z,1.40
2022-09-20T06:12:46.026Z,1.53
2022-09-20T06:15:22.607Z,1.40
2022-09-20T06:18:00.026Z,1.60
2022-09-20T06:20:37.489Z,1.30
2022-09-20T06:23:12.972Z,1.70
2022-09-20T06:25:49.807Z,1.30
2022-09-20T06:28:21.795Z,1.33
2022-09-20T06:35:12.186Z,1.50
2022-09-20T06:38:01.545Z,1.30
2022-09-20T06:40:54.656Z,1.60
2022-09-20T06:43:24.863Z,1.90
2022-09-20T06:45:54.749Z,1.30
2022-09-20T06:48:25.214Z,1.10
2022-09-20T06:50:55.074Z,1.27
2022-09-20T06:53:29.773Z,1.33
2022-09-20T06:56:04.366Z,1.60
2022-09-20T06:58:34.253Z,1.50
2022-09-20T07:01:04.667Z,1.10
2022-09-20T07:03:34.913Z,1.77
2022-09-20T07:06:05.298Z,1.40
2022-09-20T07:08:46.609Z,1.33
2022-09-20T07:11:20.436Z,1.33
2022-09-20T07:13:54.347Z,1.47
2022-09-20T07:16:26.464Z,1.30
2022-09-20T07:18:56.918Z,1.10
2022-09-20T07:21:27.141Z,1.47
2022-09-20T07:23:57.977Z,1.17
2022-09-20T07:26:32.759Z,1.73
2022-09-20T07:29:03.151Z,1.57
2022-09-20T07:31:33.614Z,1.60
2022-09-20T07:34:03.554Z,1.40
2022-09-20T07:36:33.519Z,1.53
2022-09-20T07:39:04.180Z,1.57
2022-09-20T07:41:36.734Z,1.80
2022-09-20T07:44:19.181Z,1.87
2022-09-20T07:48:00.670Z,1.50
2022-09-20T07:51:07.947Z,1.30
2022-09-20T07:53:39.838Z,1.70
2022-09-20T07:56:13.198Z,1.67
2022-09-20T07:58:52.078Z,1.50
2022-09-20T08:01:33.546Z,1.80
2022-09-20T08:04:04.669Z,1.30
2022-09-20T08:06:35.098Z,1.67
2022-09-20T08:09:08.959Z,1.87
2022-09-20T08:11:41.750Z,1.70
2022-09-20T08:14:18.003Z,1.63
2022-09-20T08:16:51.817Z,1.43
2022-09-20T08:19:23.586Z,1.50
2022-09-20T08:21:55.788Z,1.50
2022-09-20T08:24:28.332Z,1.80
2022-09-20T08:26:58.896Z,1.53
2022-09-20T08:29:31.883Z,1.50
2022-09-20T08:32:02.311Z,1.50
2022-09-20T08:34:32.815Z,1.67
2022-09-20T08:37:03.986Z,1.40
2022-09-20T08:42:34.349Z,1.37
2022-09-20T08:45:22.195Z,1.43
2022-09-20T08:47:58.687Z,1.30
2022-09-20T08:50:30.296Z,1.27
2022-09-20T08:53:06.074Z,2.03
2022-09-20T08:55:41.682Z,1.27
2022-09-20T08:58:14.296Z,1.70
2022-09-20T09:00:49.393Z,1.70
2022-09-20T09:03:21.128Z,1.50
2022-09-20T09:05:53.387Z,1.50
2022-09-20T09:08:27.169Z,2.00
2022-09-20T09:10:59.962Z,1.60
2022-09-20T09:13:37.001Z,1.63
2022-09-20T09:16:22.497Z,1.50
2022-09-20T09:18:55.348Z,1.67
2022-09-20T09:21:29.044Z,1.43
2022-09-20T09:24:09.558Z,1.50
2022-09-20T09:26:43.398Z,1.60
2022-09-20T09:29:20.405Z,1.40
2022-09-20T09:31:55.118Z,1.63
2022-09-20T09:34:30.524Z,1.60
2022-09-20T09:37:01.744Z,1.50
2022-09-20T09:39:34.275Z,1.70
2022-09-20T09:42:53.012Z,1.60
2022-09-20T09:45:42.195Z,1.70
2022-09-20T09:48:26.770Z,1.58
2022-09-20T09:51:15.429Z,1.52
2022-09-20T09:53:47.607Z,1.52
2022-09-20T09:56:49.230Z,1.42
2022-09-20T09:59:46.924Z,1.40
2022-09-20T10:02:34.126Z,1.85
2022-09-20T10:09:33.655Z,2.05
2022-09-20T10:12:18.015Z,1.75
2022-09-20T10:15:04.396Z,1.83
2022-09-20T10:17:49.558Z,1.40
2022-09-20T10:20:35.460Z,1.58
2022-09-20T10:26:21.700Z,1.63
2022-09-20T10:29:05.489Z,1.38
2022-09-20T10:31:49.187Z,1.85
2022-09-20T10:34:40.479Z,1.42
2022-09-20T10:37:19.274Z,1.42
2022-09-20T10:39:57.383Z,1.45
2022-09-20T10:42:54.335Z,1.42
2022-09-20T10:45:59.469Z,1.35
2022-09-20T10:48:25.687Z,1.70
2022-09-20T10:51:02.118Z,2.22
2022-09-20T10:53:41.817Z,2.15
2022-09-20T10:56:30.385Z,1.70
2022-09-20T10:59:30.363Z,1.23
2022-09-20T11:02:16.947Z,1.67
2022-09-20T11:05:01.856Z,1.70
2022-09-20T11:07:49.051Z,1.58
2022-09-20T11:10:24.571Z,2.00
2022-09-20T11:13:01.224Z,2.05
2022-09-20T11:15:38.047Z,1.92
2022-09-20T11:18:15.142Z,2.05
2022-09-20T11:20:50.331Z,1.98
2022-09-20T11:23:25.429Z,1.90
2022-09-20T11:25:58.810Z,2.10
2022-09-20T11:28:35.054Z,2.10
2022-09-20T11:31:18.157Z,2.50
2022-09-20T11:33:53.127Z,1.80
2022-09-20T11:36:30.796Z,2.13
2022-09-20T11:39:06.758Z,1.60
2022-09-20T11:41:39.465Z,0.70
2022-09-20T11:44:22.608Z,1.10
2022-09-20T11:47:10.518Z,0.70
2022-09-20T11:50:13.283Z,0.60
2022-09-20T11:53:06.385Z,1.27
2022-09-20T11:55:45.496Z,0.90
2022-09-20T11:58:19.228Z,1.10
2022-09-20T12:00:54.645Z,0.80
2022-09-20T12:03:36.605Z,1.03
2022-09-20T12:06:09.615Z,1.13
2022-09-20T12:08:41.902Z,1.00
2022-09-20T12:11:15.317Z,1.03
2022-09-20T12:13:55.279Z,0.70
2022-09-20T12:16:40.905Z,0.60
2022-09-20T12:19:16.039Z,0.90
2022-09-20T12:22:19.226Z,0.93
2022-09-20T12:25:30.044Z,0.90
2022-09-20T12:28:01.764Z,0.80
2022-09-20T12:30:34.185Z,1.00
2022-09-20T12:33:05.451Z,0.90
2022-09-20T12:36:21.554Z,0.80
2022-09-20T12:38:59.292Z,1.23
2022-09-20T12:41:30.560Z,1.30
2022-09-20T12:44:24.356Z,1.70
2022-09-20T12:53:27.615Z,2.20
2022-09-20T13:03:43.607Z,1.90
2022-09-20T13:06:31.907Z,2.08
2022-09-20T13:09:14.824Z,2.25
2022-09-20T13:12:06.193Z,1.83
2022-09-20T13:14:39.158Z,1.90
2022-09-20T13:17:22.963Z,2.00
2022-09-20T13:19:54.586Z,1.90
2022-09-20T13:22:28.494Z,2.03
2022-09-20T13:25:08.844Z,1.40
2022-09-20T13:27:45.758Z,0.82
2022-09-20T13:30:32.609Z,1.00
2022-09-20T13:33:20.567Z,0.80
2022-09-20T13:35:55.237Z,0.90
2022-09-20T13:38:33.210Z,1.00
2022-09-20T13:41:09.839Z,0.80
2022-09-20T13:43:57.067Z,0.90
2022-09-20T13:46:47.628Z,1.10
2022-09-20T13:49:32.538Z,0.80
2022-09-20T13:52:14.737Z,0.90
2022-09-20T13:58:25.273Z,0.77
2022-09-20T14:03:11.551Z,0.90
2022-09-20T14:05:00.638Z,0.88
2022-09-20T14:07:32.925Z,0.80
2022-09-20T14:10:03.460Z,1.00
2022-09-20T14:12:39.582Z,0.65
2022-09-20T14:18:38.962Z,0.82
2022-09-20T14:21:13.683Z,0.90
2022-09-20T14:23:54.446Z,0.65
2022-09-20T14:26:35.009Z,0.50
2022-09-20T14:29:36.912Z,0.77
2022-09-20T14:32:42.228Z,0.70
2022-09-20T14:35:21.539Z,0.80
2022-09-20T14:37:58.660Z,0.55
2022-09-20T14:40:34.764Z,0.70
2022-09-20T14:43:23.943Z,0.55
2022-09-20T14:46:00.887Z,1.02
2022-09-20T14:48:38.033Z,0.88
2022-09-20T14:51:25.807Z,0.88
2022-09-20T14:54:31.666Z,0.60
2022-09-20T14:57:06.527Z,1.08
2022-09-20T14:59:47.555Z,0.65
2022-09-20T15:02:21.782Z,0.90
2022-09-20T15:05:06.047Z,0.80
2022-09-20T15:07:43.451Z,0.50
2022-09-20T15:10:20.160Z,0.77
2022-09-20T15:12:57.527Z,0.80
2022-09-20T15:15:31.171Z,0.55
2022-09-20T15:18:04.712Z,0.70
2022-09-20T15:20:49.358Z,1.00
2022-09-20T15:23:31.410Z,0.90
2022-09-20T15:26:10.231Z,0.80
2022-09-20T15:28:47.638Z,0.90
2022-09-20T15:31:23.025Z,0.70
2022-09-20T15:34:28.497Z,0.80
2022-09-20T15:37:15.257Z,0.70
2022-09-20T15:40:01.172Z,1.02
2022-09-20T15:42:42.510Z,2.63
2022-09-20T15:45:24.479Z,6.85
2022-09-20T15:48:09.950Z,1.17
2022-09-20T15:51:06.077Z,1.10
2022-09-20T15:53:45.091Z,1.00
2022-09-20T15:56:25.069Z,1.40
2022-09-20T15:59:25.489Z,1.02
2022-09-20T16:02:40.415Z,0.73
2022-09-20T16:05:28.361Z,0.80
2022-09-20T16:08:59.003Z,0.85
2022-09-20T16:11:53.718Z,1.02
2022-09-20T16:14:29.955Z,1.00
2022-09-20T16:17:00.911Z,0.95
2022-09-20T16:19:30.623Z,0.80
2022-09-20T16:22:02.427Z,0.77
2022-09-20T16:24:38.812Z,0.75
2022-09-20T16:27:10.453Z,1.10
2022-09-20T16:29:43.593Z,0.70
2022-09-20T16:32:16.219Z,0.80
2022-09-20T16:34:47.088Z,1.30
2022-09-20T16:37:17.579Z,1.20
2022-09-20T16:39:49.255Z,1.20
2022-09-20T16:42:21.173Z,1.00
2022-09-20T16:44:57.430Z,1.50
2022-09-20T16:47:27.874Z,2.70
2022-09-20T16:49:58.976Z,1.63
2022-09-20T16:52:29.435Z,1.60
2022-09-20T16:55:03.453Z,1.40
2022-09-20T16:57:33.831Z,1.27
2022-09-20T17:00:08.234Z,1.40
2022-09-20T17:02:39.197Z,1.65
2022-09-20T17:05:14.508Z,1.55
2022-09-20T17:07:46.386Z,1.90
2022-09-20T17:10:23.392Z,1.50
2022-09-20T17:12:57.877Z,1.73
2022-09-20T17:15:30.794Z,1.60
2022-09-20T17:18:01.008Z,1.60
2022-09-20T17:20:31.422Z,1.50
2022-09-20T17:23:02.206Z,1.48
2022-09-20T17:25:32.519Z,1.92
2022-09-20T17:28:02.810Z,1.90
2022-09-20T17:30:35.758Z,2.13
2022-09-20T17:33:05.910Z,1.90
2022-09-20T17:35:36.338Z,2.58
2022-09-20T17:38:06.358Z,1.90
2022-09-20T17:40:36.570Z,7.80
2022-09-20T17:43:07.031Z,4.32
2022-09-20T17:45:39.464Z,2.22
2022-09-20T17:48:10.825Z,2.20
2022-09-20T17:50:40.958Z,2.60
2022-09-20T17:53:11.313Z,2.47
2022-09-20T17:55:41.533Z,2.30
2022-09-20T17:58:11.789Z,2.72
2022-09-20T18:00:44.738Z,2.80
2022-09-20T18:03:14.969Z,2.80
2022-09-20T18:05:46.460Z,2.20
2022-09-20T18:08:19.088Z,2.83
2022-09-20T18:10:59.484Z,2.85
2022-09-20T18:13:30.455Z,4.18
2022-09-20T18:16:03.439Z,2.78
2022-09-20T18:18:34.113Z,3.15
2022-09-20T18:21:12.288Z,3.83
2022-09-20T18:27:28.851Z,4.82
2022-09-20T18:29:59.224Z,5.07
2022-09-20T18:33:00.310Z,3.80
2022-09-20T18:35:33.359Z,4.55
2022-09-20T18:38:03.350Z,4.30
2022-09-20T18:40:36.563Z,5.03
2022-09-20T18:43:06.903Z,5.97
2022-09-20T18:45:37.493Z,4.75
2022-09-20T18:48:08.936Z,4.43
2022-09-20T18:50:42.028Z,4.73
2022-09-20T18:53:37.089Z,4.90
2022-09-20T18:56:22.961Z,4.22
2022-09-20T18:58:57.460Z,4.18
2022-09-20T19:01:58.502Z,4.97
2022-09-20T19:05:09.866Z,4.70
2022-09-20T19:07:56.734Z,4.53
2022-09-20T19:10:38.315Z,4.67
2022-09-20T19:13:23.232Z,5.30
2022-09-20T19:16:16.142Z,4.93
2022-09-20T19:19:02.913Z,5.13
2022-09-20T19:21:42.298Z,4.80
2022-09-20T19:24:27.962Z,4.50
2022-09-20T19:26:58.804Z,3.60
2022-09-20T19:31:16.846Z,3.27
2022-09-20T19:32:36.583Z,3.40
2022-09-20T19:35:08.284Z,3.20
2022-09-20T19:37:46.227Z,3.03
2022-09-20T19:40:33.116Z,3.17
2022-09-20T19:43:17.804Z,4.43
2022-09-20T19:46:01.203Z,4.03
2022-09-20T19:48:37.352Z,3.90
2022-09-20T19:51:12.379Z,3.80
2022-09-20T19:53:43.630Z,4.23
2022-09-20T19:56:27.801Z,3.50
2022-09-20T19:58:59.405Z,3.70
2022-09-20T20:01:33.067Z,3.87
2022-09-20T20:04:04.095Z,3.80
2022-09-20T20:06:39.685Z,3.30
2022-09-20T20:09:16.184Z,3.43
2022-09-20T20:11:59.036Z,3.67
2022-09-20T20:14:36.936Z,3.80
2022-09-20T20:17:22.282Z,3.97
2022-09-20T20:20:16.216Z,3.30
2022-09-20T20:23:10.098Z,3.10
2022-09-20T20:25:48.030Z,3.50
2022-09-20T20:28:21.064Z,3.33
2022-09-20T20:30:51.513Z,3.40
2022-09-20T20:33:22.712Z,3.47
2022-09-20T20:35:56.096Z,3.60
2022-09-20T20:38:28.264Z,3.97
2022-09-20T20:41:04.791Z,3.60
2022-09-20T20:43:39.700Z,4.03
2022-09-20T20:46:11.912Z,4.17
2022-09-20T20:48:43.018Z,4.27
2022-09-20T20:51:14.668Z,3.90
2022-09-20T20:53:47.887Z,4.67
2022-09-20T20:56:19.477Z,4.50
2022-09-20T20:58:53.111Z,4.10
2022-09-20T21:01:24.695Z,4.00
2022-09-20T21:03:57.488Z,4.10
2022-09-20T21:06:30.353Z,3.53
2022-09-20T21:09:01.792Z,3.93
2022-09-20T21:11:49.496Z,3.40
2022-09-20T21:14:38.281Z,3.40
2022-09-20T21:17:11.054Z,3.87
2022-09-20T21:19:41.494Z,3.83
2022-09-20T21:22:11.508Z,4.10
2022-09-20T21:24:41.522Z,3.47
2022-09-20T21:27:12.273Z,3.50
2022-09-20T21:29:42.905Z,3.30
2022-09-20T21:32:16.534Z,3.63
2022-09-20T21:34:47.090Z,4.00
2022-09-20T21:37:17.501Z,4.10
2022-09-20T21:39:47.631Z,4.17
2022-09-20T21:42:17.736Z,3.50
2022-09-20T21:44:48.213Z,3.83
2022-09-20T21:47:21.165Z,3.50
2022-09-20T21:49:52.056Z,3.50
2022-09-20T21:52:22.554Z,3.70
2022-09-20T21:54:56.412Z,3.70
2022-09-20T21:57:27.032Z,3.23
2022-09-20T21:59:57.401Z,3.30
2022-09-20T22:02:30.351Z,3.83
2022-09-20T22:05:02.910Z,3.73
2022-09-20T22:07:32.916Z,3.37
2022-09-20T22:10:03.415Z,3.60
2022-09-20T22:12:33.555Z,3.20
2022-09-20T22:15:03.466Z,3.40
2022-09-20T22:17:36.451Z,3.87
2022-09-20T22:20:07.594Z,3.37
2022-09-20T22:22:37.903Z,3.43
2022-09-20T22:25:08.884Z,3.53
2022-09-20T22:27:39.345Z,3.50
2022-09-20T22:30:10.964Z,3.77
2022-09-20T22:32:45.899Z,3.10
2022-09-20T22:35:15.890Z,3.23
2022-09-20T22:37:46.317Z,2.97
2022-09-20T22:40:16.353Z,3.00
2022-09-20T22:42:46.314Z,3.20
2022-09-20T22:45:16.739Z,2.80
2022-09-20T22:47:49.219Z,3.30
2022-09-20T22:50:19.632Z,2.90
2022-09-20T22:52:49.582Z,2.93
2022-09-20T22:55:19.444Z,2.67
2022-09-20T22:57:54.660Z,3.07
2022-09-20T23:00:24.588Z,2.67
2022-09-20T23:03:01.558Z,2.73
2022-09-20T23:05:31.807Z,2.70
2022-09-20T23:08:02.435Z,3.07
2022-09-20T23:10:32.938Z,2.90
2022-09-20T23:13:03.841Z,2.87
2022-09-20T23:15:34.339Z,2.80
2022-09-20T23:18:08.263Z,2.53
2022-09-20T23:20:39.307Z,2.50
2022-09-20T23:23:10.162Z,2.63
2022-09-20T23:25:40.607Z,2.50
2022-09-20T23:28:11.829Z,2.50
2022-09-20T23:30:42.527Z,3.13
2022-09-20T23:33:15.861Z,2.80
2022-09-20T23:35:47.102Z,2.70
2022-09-20T23:38:17.819Z,2.23
2022-09-20T23:40:48.683Z,2.43
2022-09-20T23:43:19.657Z,2.67
2022-09-20T23:45:50.332Z,2.40
2022-09-20T23:48:23.679Z,2.40
2022-09-20T23:50:54.181Z,2.40
2022-09-20T23:53:25.522Z,2.23
2022-09-20T23:55:55.802Z,2.00
2022-09-20T23:58:27.016Z,2.40
